Baker Lake Airport
CYBK : now visible

Airfield :











YOU CAN JOIN US ON...

 
LOGIN :

Register | Disclaimer

   EN    FR    IT 

 









Legend :    VFR   Marginal VFR   IFR   Intensive IFR   Very Intensive IFR
Visi :
Ceiling :
>= 8 km
>= 3000ft
5 to 8 km
1000 to 3000 ft
1500m to 5 km
500 to 1000 ft
800 to 1500m
200 to 500 ft
< 800m
< 200 ft
Symbols :   Thunderstorms  Fog  Heavy snow  Heavy precipitations  Wind > 20 kt






- Airport Elevation : 59 ft
- IATA code : YBK


CYBK - Baker Lake

CURRENT METAR :
  • 121800Z 29012KT 20SM FEW020 SCT060 M30/M35 A2992 RMK SC2SC1 SLP138

EXPIRED METARs :
  • 121700Z 30014KT 15SM FEW060 M30/M34 A2992 RMK SC2 SLP136
  • 121600Z 30015KT 20SM SCT060 M30/M34 A2991 RMK SC3 SLP135

TAF TAF CYBK
Valid from the 12 at 18:00 until the 13 at 06:00 UTC


121738Z 1218/1306 30012KT P6SM FEW060 RMK NXT FCST BY 130000Z



MET'MAP, your aeronautical weather chart ! - Copyright ORBIFLY December 2007 - Disclaimer

ORBIFLY MET'MAP TEAM :

Programming & Development : Alexandra Zaïnal
Concept & original design : Baudouin d'Aumeries
Assistance for programming : Marc-Olivier Méhu
Technical & hardware support : Manuel Goepfert

Contact : metmap@orbifly.com




SOURCES & CREDITS :

   NOAA       Earth
Advisory